MDLR/LRM METAR and TAF weather

Enter ICAO airport designator
Station Type Date Time Source
MDLR METAR 2022/01/29 13:00 UTC NOAA

MDLR 291300Z 00000KT 9999 FEW018 20/20 Q1014 NOSIG


Station Type Date Time Source
MDLR Decoded METAR 2022/01/29 13:00 UTC NOAA

La Romana International Airport, Dominican Republic (MDLR) 18-25N 068-57W
Jan 29, 2022 - 08:00 AM EST / 2022.01.29 1300 UTC
Wind: Calm:0
Visibility: greater than 7 mile(s):0
Sky conditions: mostly clear
Temperature: 68 F (20 C)
Dew Point: 68 F (20 C)
Relative Humidity: 100%
Pressure (altimeter): 29.94 in. Hg (1014 hPa)
ob: MDLR 291300Z 00000KT 9999 FEW018 20/20 Q1014 NOSIG
cycle: 13

Station Type Date Time Source
MDLR TAF 2022/01/29 12:27 UTC NOAA

TAF MDLR 291000Z 2912/3012 07008KT 9999 FEW018
BECMG 2914/2916 18010KT SCT020

Example: see airport list